createdAt,value
2018-04-18T00:00:35.089Z,5.90
2018-04-18T00:03:02.531Z,5.87
2018-04-18T00:05:29.947Z,6.90
2018-04-18T00:07:57.333Z,6.37
2018-04-18T00:10:25.468Z,6.87
2018-04-18T00:12:52.872Z,7.40
2018-04-18T00:15:20.273Z,6.83
2018-04-18T00:17:47.924Z,8.35
2018-04-18T00:20:15.320Z,6.03
2018-04-18T00:22:42.715Z,7.03
2018-04-18T00:25:10.094Z,6.50
2018-04-18T00:27:37.675Z,8.73
2018-04-18T00:30:05.047Z,5.25
2018-04-18T00:32:32.436Z,4.97
2018-04-18T00:34:59.820Z,7.57
2018-04-18T00:37:27.214Z,8.33
2018-04-18T00:39:54.588Z,6.50
2018-04-18T00:42:21.980Z,7.30
2018-04-18T00:44:49.367Z,7.00
2018-04-18T00:47:16.762Z,10.23
2018-04-18T00:49:44.149Z,7.90
2018-04-18T00:52:11.836Z,9.47
2018-04-18T00:54:39.284Z,7.80
2018-04-18T00:57:06.689Z,12.18
2018-04-18T00:59:34.089Z,8.00
2018-04-18T01:02:01.486Z,9.73
2018-04-18T01:04:28.880Z,6.83
2018-04-18T01:06:56.276Z,7.87
2018-04-18T01:09:23.663Z,6.83
2018-04-18T01:11:51.055Z,5.90
2018-04-18T01:14:18.444Z,7.07
2018-04-18T01:16:45.832Z,6.20
2018-04-18T01:19:14.017Z,6.43
2018-04-18T01:21:41.448Z,5.97
2018-04-18T01:24:08.836Z,9.30
2018-04-18T01:26:36.224Z,7.00
2018-04-18T01:29:03.630Z,6.70
2018-04-18T01:31:31.016Z,7.83
2018-04-18T01:33:58.575Z,7.00
2018-04-18T01:36:25.972Z,6.80
2018-04-18T01:38:53.360Z,6.37
2018-04-18T01:41:20.749Z,6.77
2018-04-18T01:43:48.171Z,14.57
2018-04-18T01:46:15.714Z,6.17
2018-04-18T01:48:43.097Z,6.90
2018-04-18T01:51:10.477Z,7.13
2018-04-18T01:53:37.885Z,7.03
2018-04-18T01:56:05.271Z,5.95
2018-04-18T01:58:32.677Z,6.80
2018-04-18T02:01:00.071Z,9.43
2018-04-18T02:03:27.478Z,7.03
2018-04-18T02:05:54.883Z,7.93
2018-04-18T02:08:22.260Z,7.10
2018-04-18T02:10:49.672Z,7.33
2018-04-18T02:13:17.055Z,8.23
2018-04-18T02:15:44.459Z,9.00
2018-04-18T02:18:11.858Z,6.97
2018-04-18T02:20:39.243Z,9.35
2018-04-18T02:23:06.641Z,7.27
2018-04-18T02:25:34.046Z,7.73
2018-04-18T02:28:01.416Z,6.30
2018-04-18T02:30:28.821Z,7.13
2018-04-18T02:32:56.208Z,7.17
2018-04-18T02:35:23.600Z,6.43
2018-04-18T02:37:50.998Z,7.17
2018-04-18T02:40:18.393Z,6.30
2018-04-18T02:42:45.803Z,7.00
2018-04-18T02:45:13.185Z,8.23
2018-04-18T02:47:40.577Z,8.10
2018-04-18T02:50:07.970Z,6.50
2018-04-18T02:52:35.361Z,11.43
2018-04-18T02:55:02.764Z,6.75
2018-04-18T02:57:30.186Z,9.30
2018-04-18T02:59:57.587Z,7.50
2018-04-18T03:02:24.982Z,9.73
2018-04-18T03:04:52.376Z,7.27
2018-04-18T03:07:19.762Z,7.50
2018-04-18T03:09:47.153Z,7.63
2018-04-18T03:12:14.556Z,8.10
2018-04-18T03:14:41.959Z,9.77
2018-04-18T03:17:09.360Z,10.80
2018-04-18T03:19:36.767Z,10.00
2018-04-18T03:22:04.147Z,9.43
2018-04-18T03:24:31.537Z,8.37
2018-04-18T03:26:58.917Z,10.85
2018-04-18T03:29:26.313Z,9.30
2018-04-18T03:31:53.696Z,9.27
2018-04-18T03:34:21.090Z,9.30
2018-04-18T03:36:48.592Z,8.70
2018-04-18T03:39:15.993Z,8.50
2018-04-18T03:41:43.381Z,7.93
2018-04-18T03:44:10.838Z,8.00
2018-04-18T03:46:38.252Z,10.77
2018-04-18T03:49:05.637Z,8.63
2018-04-18T03:51:33.032Z,7.87
2018-04-18T03:54:00.419Z,7.00
2018-04-18T03:56:27.829Z,9.77
2018-04-18T03:58:55.223Z,8.50
2018-04-18T04:01:22.632Z,8.77
2018-04-18T04:03:50.012Z,12.00
2018-04-18T04:06:17.452Z,8.07
2018-04-18T04:08:44.829Z,10.87
2018-04-18T04:11:12.535Z,9.50
2018-04-18T04:13:39.927Z,10.23
2018-04-18T04:16:19.160Z,9.90
2018-04-18T04:18:58.171Z,8.50
2018-04-18T04:21:37.340Z,9.40
2018-04-18T04:24:17.099Z,8.35
2018-04-18T04:26:44.504Z,9.07
2018-04-18T04:29:11.925Z,13.13
2018-04-18T04:31:39.417Z,13.63
2018-04-18T04:34:06.803Z,11.03
2018-04-18T04:36:34.210Z,11.30
2018-04-18T04:39:01.609Z,12.37
2018-04-18T04:41:29.016Z,10.65
2018-04-18T04:43:56.404Z,10.67
2018-04-18T04:46:23.848Z,9.93
2018-04-18T04:48:51.241Z,10.70
2018-04-18T04:51:18.664Z,11.10
2018-04-18T04:53:46.047Z,9.93
2018-04-18T04:56:13.453Z,10.47
2018-04-18T04:58:40.844Z,9.67
2018-04-18T05:01:08.240Z,10.53
2018-04-18T05:03:35.628Z,9.90
2018-04-18T05:06:03.037Z,9.18
2018-04-18T05:08:30.421Z,9.20
2018-04-18T05:10:57.895Z,11.03
2018-04-18T05:13:25.398Z,12.25
2018-04-18T05:15:52.781Z,9.57
2018-04-18T05:18:20.212Z,10.70
2018-04-18T05:20:47.652Z,9.20
2018-04-18T05:23:15.087Z,11.37
2018-04-18T05:25:42.483Z,9.80
2018-04-18T05:28:09.879Z,10.97
2018-04-18T05:30:38.334Z,9.80
2018-04-18T05:33:05.722Z,9.60
2018-04-18T05:35:33.192Z,9.40
2018-04-18T05:38:00.677Z,8.77
2018-04-18T05:40:28.057Z,9.47
2018-04-18T05:42:55.460Z,11.33
2018-04-18T05:45:22.864Z,12.05
2018-04-18T05:47:50.322Z,13.00
2018-04-18T05:50:17.788Z,13.80
2018-04-18T05:52:45.244Z,16.80
2018-04-18T05:55:12.695Z,10.60
2018-04-18T05:57:40.223Z,10.50
2018-04-18T06:00:07.621Z,16.02
2018-04-18T06:02:35.065Z,25.33
2018-04-18T06:05:02.531Z,14.67
2018-04-18T06:07:29.992Z,25.17
2018-04-18T06:09:57.445Z,15.43
2018-04-18T06:12:24.903Z,21.10
2018-04-18T06:14:52.364Z,16.30
2018-04-18T06:17:19.821Z,18.80
2018-04-18T06:19:47.283Z,16.13
2018-04-18T06:22:14.863Z,17.40
2018-04-18T06:24:42.286Z,15.10
2018-04-18T06:27:09.668Z,17.47
2018-04-18T06:29:37.090Z,21.37
2018-04-18T06:32:04.580Z,16.07
2018-04-18T06:34:32.023Z,15.03
2018-04-18T06:36:59.472Z,16.73
2018-04-18T06:39:26.928Z,13.70
2018-04-18T06:41:54.401Z,16.83
2018-04-18T06:44:21.884Z,14.85
2018-04-18T06:46:49.416Z,19.90
2018-04-18T06:49:16.821Z,23.27
2018-04-18T06:51:44.240Z,15.02
2018-04-18T06:54:12.607Z,15.10
2018-04-18T06:56:40.040Z,15.73
2018-04-18T06:59:07.516Z,16.20
2018-04-18T07:01:34.982Z,17.67
2018-04-18T07:04:02.432Z,18.70
2018-04-18T07:06:29.875Z,13.73
2018-04-18T07:08:57.280Z,13.60
2018-04-18T07:11:24.714Z,16.00
2018-04-18T07:13:52.113Z,17.00
2018-04-18T07:16:19.533Z,13.50
2018-04-18T07:18:46.975Z,13.63
2018-04-18T07:21:14.375Z,15.87
2018-04-18T07:23:41.808Z,14.20
2018-04-18T07:26:09.253Z,23.17
2018-04-18T07:28:36.718Z,18.02
2018-04-18T07:31:04.175Z,16.20
2018-04-18T07:33:31.624Z,19.00
2018-04-18T07:35:59.421Z,15.27
2018-04-18T07:38:26.856Z,20.67
2018-04-18T07:40:54.317Z,20.53
2018-04-18T07:43:21.770Z,14.97
2018-04-18T07:45:49.251Z,16.98
2018-04-18T07:48:16.690Z,16.00
2018-04-18T07:50:44.447Z,20.60
2018-04-18T07:53:12.318Z,15.00
2018-04-18T07:55:39.709Z,16.47
2018-04-18T07:58:07.132Z,14.07
2018-04-18T08:00:34.768Z,17.15
2018-04-18T08:03:02.173Z,18.70
2018-04-18T08:05:29.595Z,17.40
2018-04-18T08:07:56.984Z,21.30
2018-04-18T08:10:24.421Z,17.10
2018-04-18T08:12:51.864Z,16.60
2018-04-18T08:15:19.394Z,22.65
2018-04-18T08:17:46.792Z,22.87
2018-04-18T08:20:15.164Z,22.93
2018-04-18T08:22:42.626Z,22.17
2018-04-18T08:25:10.029Z,21.53
2018-04-18T08:27:37.543Z,23.47
2018-04-18T08:30:05.002Z,23.23
2018-04-18T08:32:32.460Z,21.07
2018-04-18T08:34:59.925Z,25.73
2018-04-18T08:37:27.382Z,25.60
2018-04-18T08:39:54.841Z,27.77
2018-04-18T08:42:22.237Z,24.53
2018-04-18T08:44:49.737Z,23.75
2018-04-18T08:47:17.184Z,24.67
2018-04-18T08:49:44.778Z,23.57
2018-04-18T08:52:12.176Z,24.60
2018-04-18T08:54:39.593Z,25.57
2018-04-18T08:57:07.060Z,24.87
2018-04-18T08:59:34.499Z,22.70
2018-04-18T09:02:01.967Z,24.13
2018-04-18T09:04:29.428Z,22.80
2018-04-18T09:06:56.876Z,21.67
2018-04-18T09:09:24.325Z,28.20
2018-04-18T09:11:51.792Z,27.00
2018-04-18T09:14:19.353Z,27.13
2018-04-18T09:16:46.775Z,26.90
2018-04-18T09:19:14.181Z,23.83
2018-04-18T09:21:41.723Z,28.33
2018-04-18T09:24:09.184Z,23.23
2018-04-18T09:26:36.639Z,25.30
2018-04-18T09:29:04.093Z,21.70
2018-04-18T09:31:31.550Z,22.03
2018-04-18T09:33:59.009Z,23.40
2018-04-18T09:36:26.468Z,19.57
2018-04-18T09:38:53.871Z,22.83
2018-04-18T09:41:21.278Z,26.90
2018-04-18T09:43:48.841Z,24.47
2018-04-18T09:46:16.242Z,20.80
2018-04-18T09:48:43.663Z,22.17
2018-04-18T09:51:11.123Z,22.40
2018-04-18T09:53:38.666Z,20.37
2018-04-18T09:56:06.124Z,17.10
2018-04-18T09:58:33.631Z,20.10
2018-04-18T10:01:01.040Z,17.93
2018-04-18T10:03:28.504Z,16.40
2018-04-18T10:05:55.918Z,20.42
2018-04-18T10:08:23.614Z,16.23
2018-04-18T10:10:51.069Z,16.23
2018-04-18T10:13:18.548Z,20.13
2018-04-18T10:15:46.000Z,19.03
2018-04-18T10:18:13.485Z,18.90
2018-04-18T10:20:40.936Z,10.17
2018-04-18T10:23:08.366Z,25.53
2018-04-18T10:25:36.233Z,11.87
2018-04-18T10:28:03.699Z,10.43
2018-04-18T10:30:31.072Z,12.43
2018-04-18T10:32:58.511Z,10.70
2018-04-18T10:35:26.887Z,14.93
2018-04-18T10:37:54.368Z,13.40
2018-04-18T10:40:21.812Z,11.83
2018-04-18T10:42:49.272Z,10.70
2018-04-18T10:45:16.791Z,11.47
2018-04-18T10:47:44.180Z,11.60
2018-04-18T10:50:11.643Z,12.67
2018-04-18T10:52:39.103Z,10.07
2018-04-18T10:55:06.524Z,14.70
2018-04-18T10:57:33.917Z,13.18
2018-04-18T11:00:01.321Z,11.73
2018-04-18T11:02:28.717Z,11.03
2018-04-18T11:04:56.124Z,7.60
2018-04-18T11:07:23.543Z,9.43
2018-04-18T11:09:50.948Z,9.43
2018-04-18T11:12:18.333Z,10.87
2018-04-18T11:14:45.732Z,11.30
2018-04-18T11:17:13.126Z,8.03
2018-04-18T11:19:40.524Z,9.40
2018-04-18T11:22:07.913Z,12.37
2018-04-18T11:24:35.307Z,8.32
2018-04-18T11:27:02.696Z,7.60
2018-04-18T11:29:30.111Z,12.70
2018-04-18T11:31:57.480Z,5.25
2018-04-18T11:34:24.883Z,4.90
2018-04-18T11:36:52.272Z,7.90
2018-04-18T11:39:19.716Z,4.73
2018-04-18T11:41:47.112Z,13.93
2018-04-18T11:44:14.544Z,11.97
2018-04-18T11:46:41.924Z,7.95
2018-04-18T11:49:09.323Z,9.03
2018-04-18T11:51:36.732Z,6.57
2018-04-18T11:54:04.127Z,5.00
2018-04-18T11:56:31.529Z,3.73
2018-04-18T11:58:58.932Z,5.63
2018-04-18T12:01:26.338Z,6.82
2018-04-18T12:03:53.740Z,10.37
2018-04-18T12:06:21.843Z,4.53
2018-04-18T12:08:49.254Z,5.90
2018-04-18T12:11:16.651Z,6.13
2018-04-18T12:13:44.044Z,6.10
2018-04-18T12:16:11.459Z,4.23
2018-04-18T12:18:38.849Z,7.37
2018-04-18T12:21:06.264Z,5.63
2018-04-18T12:23:33.660Z,9.10
2018-04-18T12:26:01.072Z,4.63
2018-04-18T12:28:28.473Z,5.57
2018-04-18T12:30:55.883Z,5.53
2018-04-18T12:33:23.276Z,6.77
2018-04-18T12:35:51.483Z,3.47
2018-04-18T12:38:18.887Z,6.80
2018-04-18T12:40:46.285Z,7.20
2018-04-18T12:43:14.397Z,9.93
2018-04-18T12:45:41.807Z,5.53
2018-04-18T12:48:09.216Z,5.10
2018-04-18T12:50:36.626Z,9.23
2018-04-18T12:53:04.028Z,4.73
2018-04-18T12:55:31.436Z,6.93
2018-04-18T12:57:58.841Z,4.40
2018-04-18T13:00:26.227Z,5.53
2018-04-18T13:02:53.684Z,7.10
2018-04-18T13:05:21.064Z,4.20
2018-04-18T13:07:48.485Z,3.90
2018-04-18T13:10:15.903Z,3.20
2018-04-18T13:12:43.307Z,4.27
2018-04-18T13:15:10.747Z,5.97
2018-04-18T13:17:38.158Z,5.27
2018-04-18T13:20:05.559Z,4.10
2018-04-18T13:22:32.969Z,3.70
2018-04-18T13:25:00.366Z,3.20
2018-04-18T13:27:27.773Z,3.70
2018-04-18T13:29:55.178Z,3.97
2018-04-18T13:32:22.589Z,3.43
2018-04-18T13:34:50.593Z,5.60
2018-04-18T13:37:18.033Z,4.60
2018-04-18T13:39:45.424Z,4.53
2018-04-18T13:42:13.709Z,4.20
2018-04-18T13:44:41.084Z,6.47
2018-04-18T13:47:08.496Z,7.77
2018-04-18T13:49:35.884Z,2.83
2018-04-18T13:52:03.283Z,3.80
2018-04-18T13:54:30.680Z,3.23
2018-04-18T13:56:58.105Z,2.83
2018-04-18T13:59:25.596Z,3.35
2018-04-18T14:01:52.981Z,3.07
2018-04-18T14:04:20.515Z,3.03
2018-04-18T14:06:47.896Z,3.63
2018-04-18T14:09:15.338Z,7.90
2018-04-18T14:11:42.736Z,4.67
2018-04-18T14:14:10.124Z,3.10
2018-04-18T14:16:37.516Z,2.70
2018-04-18T14:19:04.912Z,5.70
2018-04-18T14:21:32.313Z,3.93
2018-04-18T14:23:59.696Z,4.53
2018-04-18T14:26:27.388Z,5.97
2018-04-18T14:28:54.872Z,3.97
2018-04-18T14:31:22.260Z,16.23
2018-04-18T14:33:49.657Z,6.10
2018-04-18T14:36:17.067Z,5.20
2018-04-18T14:38:44.509Z,5.50
2018-04-18T14:41:11.955Z,6.53
2018-04-18T14:43:39.408Z,10.43
2018-04-18T14:46:06.785Z,5.80
2018-04-18T14:48:34.199Z,6.00
2018-04-18T14:51:01.607Z,11.50
2018-04-18T14:53:28.984Z,5.30
2018-04-18T14:55:56.403Z,6.00
2018-04-18T14:58:23.853Z,6.10
2018-04-18T15:00:51.325Z,6.63
2018-04-18T15:03:18.745Z,5.80
2018-04-18T15:05:46.140Z,4.47
2018-04-18T15:08:13.522Z,4.77
2018-04-18T15:10:40.990Z,5.17
2018-04-18T15:13:08.326Z,11.37
2018-04-18T15:15:35.775Z,5.30
2018-04-18T15:18:03.220Z,4.20
2018-04-18T15:20:30.665Z,4.30
2018-04-18T15:22:58.602Z,4.22
2018-04-18T15:25:26.013Z,5.10
2018-04-18T15:27:53.450Z,3.73
2018-04-18T15:30:20.818Z,3.33
2018-04-18T15:32:48.499Z,3.10
2018-04-18T15:35:15.925Z,4.00
2018-04-18T15:37:43.308Z,4.23
2018-04-18T15:40:11.066Z,6.13
2018-04-18T15:42:38.444Z,3.20
2018-04-18T15:45:05.879Z,5.47
2018-04-18T15:47:33.320Z,3.73
2018-04-18T15:50:00.795Z,4.40
2018-04-18T15:52:28.220Z,5.83
2018-04-18T15:54:55.703Z,4.80
2018-04-18T15:57:23.170Z,3.77
2018-04-18T15:59:50.608Z,7.43
2018-04-18T16:02:18.072Z,3.10
2018-04-18T16:04:45.524Z,4.93
2018-04-18T16:07:12.988Z,4.57
2018-04-18T16:09:40.443Z,3.10
2018-04-18T16:12:07.930Z,3.10
2018-04-18T16:14:35.374Z,5.15
2018-04-18T16:17:02.828Z,6.87
2018-04-18T16:19:30.720Z,3.97
2018-04-18T16:21:58.156Z,4.37
2018-04-18T16:24:25.533Z,3.10
2018-04-18T16:26:52.970Z,2.57
2018-04-18T16:29:32.227Z,3.40
2018-04-18T16:31:59.659Z,3.20
2018-04-18T16:34:27.026Z,4.63
2018-04-18T16:36:54.494Z,3.40
2018-04-18T16:39:22.037Z,3.87
2018-04-18T16:41:49.496Z,3.13
2018-04-18T16:44:16.949Z,6.27
2018-04-18T16:46:44.328Z,4.50
2018-04-18T16:49:11.766Z,3.22
2018-04-18T16:51:39.172Z,4.53
2018-04-18T16:54:06.544Z,4.30
2018-04-18T16:56:33.943Z,2.63
2018-04-18T16:59:02.329Z,3.30
2018-04-18T17:01:29.806Z,3.40
2018-04-18T17:03:57.532Z,3.83
2018-04-18T17:06:25.820Z,2.70
2018-04-18T17:08:53.968Z,6.60
2018-04-18T17:11:21.443Z,3.53
2018-04-18T17:13:48.902Z,3.10
2018-04-18T17:16:16.270Z,4.70
2018-04-18T17:18:43.724Z,3.92
2018-04-18T17:21:11.165Z,4.03
2018-04-18T17:23:38.640Z,3.83
2018-04-18T17:26:06.089Z,4.10
2018-04-18T17:28:33.641Z,2.83
2018-04-18T17:31:01.011Z,2.50
2018-04-18T17:33:28.409Z,4.00
2018-04-18T17:35:55.799Z,3.17
2018-04-18T17:38:23.199Z,4.40
2018-04-18T17:40:50.585Z,6.30
2018-04-18T17:43:17.973Z,5.03
2018-04-18T17:45:45.357Z,4.70
2018-04-18T17:48:12.761Z,3.40
2018-04-18T17:50:40.144Z,4.20
2018-04-18T17:53:07.688Z,3.83
2018-04-18T17:55:35.078Z,5.20
2018-04-18T17:58:02.471Z,5.40
2018-04-18T18:00:29.856Z,3.50
2018-04-18T18:02:57.314Z,3.80
2018-04-18T18:05:24.766Z,3.73
2018-04-18T18:07:52.159Z,3.80
2018-04-18T18:10:19.534Z,3.90
2018-04-18T18:12:46.924Z,3.77
2018-04-18T18:15:14.419Z,4.97
2018-04-18T18:17:41.822Z,3.93
2018-04-18T18:20:09.229Z,4.00
2018-04-18T18:22:36.655Z,4.40
2018-04-18T18:25:04.188Z,3.67
2018-04-18T18:27:31.595Z,10.97
2018-04-18T18:29:59.082Z,4.93
2018-04-18T18:32:26.519Z,4.27
2018-04-18T18:34:53.922Z,5.30
2018-04-18T18:37:21.316Z,10.47
2018-04-18T18:39:48.731Z,5.90
2018-04-18T18:42:16.096Z,4.30
2018-04-18T18:44:43.490Z,3.70
2018-04-18T18:47:10.892Z,5.78
2018-04-18T18:49:38.271Z,4.23
2018-04-18T18:52:06.072Z,8.70
2018-04-18T18:54:33.453Z,4.10
2018-04-18T18:57:00.906Z,6.13
2018-04-18T18:59:28.270Z,3.43
2018-04-18T19:01:55.654Z,5.70
2018-04-18T19:04:23.177Z,3.67
2018-04-18T19:06:50.555Z,4.50
2018-04-18T19:09:17.948Z,5.17
2018-04-18T19:11:45.335Z,3.63
2018-04-18T19:14:12.730Z,4.13
2018-04-18T19:16:40.124Z,3.10
2018-04-18T19:19:07.523Z,6.05
2018-04-18T19:21:35.268Z,3.70
2018-04-18T19:24:02.763Z,3.62
2018-04-18T19:26:30.147Z,4.80
2018-04-18T19:28:57.662Z,3.57
2018-04-18T19:31:25.039Z,6.95
2018-04-18T19:33:52.884Z,3.20
2018-04-18T19:36:21.274Z,3.50
2018-04-18T19:38:48.676Z,5.80
2018-04-18T19:41:16.115Z,5.53
2018-04-18T19:43:43.499Z,4.47
2018-04-18T19:46:10.900Z,4.87
2018-04-18T19:48:38.273Z,3.97
2018-04-18T19:51:05.714Z,2.77
2018-04-18T19:53:33.364Z,9.00
2018-04-18T19:56:00.747Z,4.30
2018-04-18T19:58:28.156Z,6.73
2018-04-18T20:00:55.551Z,6.07
2018-04-18T20:03:22.940Z,4.90
2018-04-18T20:05:50.339Z,8.20
2018-04-18T20:08:17.714Z,6.43
2018-04-18T20:10:45.130Z,8.10
2018-04-18T20:13:12.517Z,5.83
2018-04-18T20:15:39.910Z,4.90
2018-04-18T20:18:07.344Z,8.87
2018-04-18T20:20:34.822Z,6.07
2018-04-18T20:23:02.180Z,6.00
2018-04-18T20:25:29.580Z,4.65
2018-04-18T20:27:56.962Z,8.40
2018-04-18T20:30:24.365Z,4.20
2018-04-18T20:32:51.771Z,4.93
2018-04-18T20:35:19.435Z,7.97
2018-04-18T20:37:46.815Z,7.80
2018-04-18T20:40:14.220Z,10.23
2018-04-18T20:42:57.541Z,5.18
2018-04-18T20:45:24.930Z,9.30
2018-04-18T20:47:52.316Z,8.47
2018-04-18T20:50:19.715Z,5.63
2018-04-18T20:52:47.100Z,5.93
2018-04-18T20:55:14.512Z,8.40
2018-04-18T20:57:42.187Z,6.63
2018-04-18T21:00:09.701Z,5.93
2018-04-18T21:02:37.115Z,6.77
2018-04-18T21:05:05.986Z,5.60
2018-04-18T21:07:33.379Z,7.50
2018-04-18T21:10:00.757Z,9.53
2018-04-18T21:12:28.150Z,6.90
2018-04-18T21:14:55.614Z,6.40
2018-04-18T21:17:22.992Z,5.90
2018-04-18T21:19:50.545Z,5.17
2018-04-18T21:22:17.951Z,9.80
2018-04-18T21:24:45.455Z,5.20
2018-04-18T21:27:12.841Z,7.23
2018-04-18T21:29:40.227Z,8.57
2018-04-18T21:32:07.619Z,6.10
2018-04-18T21:34:35.152Z,5.60
2018-04-18T21:37:02.551Z,4.00
2018-04-18T21:39:29.933Z,6.60
2018-04-18T21:41:57.664Z,7.87
2018-04-18T21:44:25.127Z,6.60
2018-04-18T21:46:52.536Z,10.18
2018-04-18T21:49:19.923Z,8.47
2018-04-18T21:51:47.327Z,6.90
2018-04-18T21:54:14.887Z,8.20
2018-04-18T21:56:42.290Z,9.17
2018-04-18T22:02:42.460Z,10.00
2018-04-18T22:05:09.847Z,10.80
2018-04-18T22:07:37.404Z,9.15
2018-04-18T22:10:04.805Z,6.80
2018-04-18T22:12:32.210Z,12.57
2018-04-18T22:14:59.606Z,6.80
2018-04-18T22:17:27.127Z,7.83
2018-04-18T22:19:54.501Z,7.57
2018-04-18T22:22:21.904Z,5.87
2018-04-18T22:24:49.287Z,5.63
2018-04-18T22:27:16.788Z,10.27
2018-04-18T22:29:44.177Z,9.40
2018-04-18T22:32:11.573Z,9.67
2018-04-18T22:34:39.067Z,9.60
2018-04-18T22:37:06.502Z,9.77
2018-04-18T22:39:33.890Z,8.13
2018-04-18T22:42:01.272Z,8.87
2018-04-18T22:44:28.908Z,8.98
2018-04-18T22:46:56.334Z,12.40
2018-04-18T22:49:23.696Z,8.50
2018-04-18T22:51:51.083Z,8.20
2018-04-18T22:54:18.656Z,8.80
2018-04-18T22:56:46.666Z,7.97
2018-04-18T22:59:14.070Z,10.10
2018-04-18T23:01:41.653Z,6.50
2018-04-18T23:04:09.044Z,7.20
2018-04-18T23:06:36.421Z,15.43
2018-04-18T23:09:03.820Z,8.43
2018-04-18T23:11:31.270Z,9.53
2018-04-18T23:13:58.672Z,12.73
2018-04-18T23:16:26.068Z,9.40
2018-04-18T23:18:53.472Z,7.53
2018-04-18T23:21:21.184Z,11.83
2018-04-18T23:23:48.599Z,7.67
2018-04-18T23:26:15.996Z,12.00
2018-04-18T23:28:43.827Z,8.00
2018-04-18T23:31:11.216Z,9.90
2018-04-18T23:33:38.616Z,7.20
2018-04-18T23:36:06.020Z,10.40
2018-04-18T23:38:33.445Z,7.97
2018-04-18T23:41:00.828Z,9.07
2018-04-18T23:43:28.238Z,9.93
2018-04-18T23:45:55.620Z,8.77
2018-04-18T23:48:23.068Z,9.10
2018-04-18T23:50:50.466Z,11.63
2018-04-18T23:53:18.319Z,10.13
2018-04-18T23:55:45.745Z,12.30
2018-04-18T23:58:13.124Z,10.87
